Tioga Center, NY (13845)

7:40 AM EDT on July 27, 2016 (GMT -0400)
Tioga Central | | Change Station

Elev 817 ft 42.06 °N, 76.35 °W | Updated 14 seconds ago

Clear
Clear
57.4 °F
Feels Like 57.4 °F
N
0.0
Wind Variable Wind from North
Gusts 1.0 mph

Today
High -- | Low -- °F
--% Chance of Precip.
Yesterday
High -- | Low -- °F
Precip. -- in
Pressure 30.01 in
Visibility 10.0 miles
Clouds Clear
Dew Point 55 °F
Humidity 92%
Rainfall 0.00 in
Snow Depth Not available.
5:54 AM 8:28 PM
Last Quarter, 44% visible
METAR KBGM 271053Z 26005KT 10SM CLR 17/16 A3004 RMK AO2 SLP161 T01670156 $
Pressure 30.01 in
Visibility 10.0 miles
Clouds Clear
Dew Point 55 °F
Humidity 92%
Rainfall 0.00 in
Snow Depth Not available.
5:54 AM 8:28 PM
Last Quarter, 44% visible
METAR KBGM 271053Z 26005KT 10SM CLR 17/16 A3004 RMK AO2 SLP161 T01670156 $

10-Day Weather Forecast

Almanac

Astronomy

Jul. 27, 2016 Rise Set
Actual Time
Civil Twilight
Nautical Twilight
Astronomical Twilight
Moon
Length of Visible Light
Length of Day
Tomorrow will be .
, % of the Moon is Illuminated

Today's Extremes

State Highs State Lows

Community

WunderPhotos

Upload Photos

1,927,828 photos uploaded!

WunderBlog® & News

Nearby

Air Quality

  Air Quality AQ Index Pollutant
Not available.

Snow Depth

Station Depth Elevation

Earthquake Activity

City Distance Mag. Time & Date
Minimum magnitude displayed is 2.5.

Coastal Water Temperatures

Place Temperature

Stations

Nearby Weather Stations

Station Location Temp. Windchill Dew Point Humidity Wind Precip. Elev Updated Type
                   

Watches & Warnings

There are currently no watches in effect.